sensor_id;sensor_type;location;lat;lon;timestamp;P1;durP1;ratioP1;P2;durP2;ratioP2
52866;SDS011;38739;53.324;6.862;2022-10-16T00:01:45;6.00;;;1.70;;
52866;SDS011;38739;53.324;6.862;2022-10-16T00:04:11;8.02;;;1.90;;
52866;SDS011;38739;53.324;6.862;2022-10-16T00:06:37;6.68;;;1.85;;
52866;SDS011;38739;53.324;6.862;2022-10-16T00:09:04;8.27;;;2.10;;
52866;SDS011;38739;53.324;6.862;2022-10-16T00:11:31;6.97;;;2.38;;
52866;SDS011;38739;53.324;6.862;2022-10-16T00:14:02;11.50;;;2.17;;
52866;SDS011;38739;53.324;6.862;2022-10-16T00:16:29;11.32;;;2.30;;
52866;SDS011;38739;53.324;6.862;2022-10-16T00:18:55;7.35;;;1.88;;
52866;SDS011;38739;53.324;6.862;2022-10-16T00:21:26;6.50;;;2.05;;
52866;SDS011;38739;53.324;6.862;2022-10-16T00:23:54;5.70;;;1.95;;
52866;SDS011;38739;53.324;6.862;2022-10-16T00:26:24;7.70;;;2.20;;
52866;SDS011;38739;53.324;6.862;2022-10-16T00:28:51;7.65;;;2.25;;
52866;SDS011;38739;53.324;6.862;2022-10-16T00:31:17;6.93;;;1.95;;
52866;SDS011;38739;53.324;6.862;2022-10-16T00:33:45;10.05;;;2.38;;
52866;SDS011;38739;53.324;6.862;2022-10-16T00:36:15;8.75;;;2.17;;
52866;SDS011;38739;53.324;6.862;2022-10-16T00:38:42;12.33;;;2.63;;
52866;SDS011;38739;53.324;6.862;2022-10-16T00:41:10;12.18;;;2.10;;
52866;SDS011;38739;53.324;6.862;2022-10-16T00:46:20;6.13;;;2.20;;
52866;SDS011;38739;53.324;6.862;2022-10-16T00:49:03;6.85;;;2.00;;
52866;SDS011;38739;53.324;6.862;2022-10-16T00:51:33;7.80;;;2.10;;
52866;SDS011;38739;53.324;6.862;2022-10-16T00:54:02;12.60;;;2.40;;
52866;SDS011;38739;53.324;6.862;2022-10-16T00:56:29;9.68;;;2.42;;
52866;SDS011;38739;53.324;6.862;2022-10-16T00:58:56;6.72;;;2.17;;
52866;SDS011;38739;53.324;6.862;2022-10-16T01:01:23;8.32;;;2.00;;
52866;SDS011;38739;53.324;6.862;2022-10-16T01:03:49;9.52;;;2.10;;
52866;SDS011;38739;53.324;6.862;2022-10-16T01:06:27;11.18;;;2.40;;
52866;SDS011;38739;53.324;6.862;2022-10-16T01:09:17;6.60;;;1.95;;
52866;SDS011;38739;53.324;6.862;2022-10-16T01:17:22;11.60;;;2.67;;
52866;SDS011;38739;53.324;6.862;2022-10-16T01:20:06;8.30;;;2.75;;
52866;SDS011;38739;53.324;6.862;2022-10-16T01:25:36;7.38;;;2.00;;
52866;SDS011;38739;53.324;6.862;2022-10-16T01:28:42;8.85;;;2.20;;
52866;SDS011;38739;53.324;6.862;2022-10-16T01:31:18;7.57;;;1.88;;
52866;SDS011;38739;53.324;6.862;2022-10-16T01:33:49;8.50;;;2.17;;
52866;SDS011;38739;53.324;6.862;2022-10-16T01:36:29;7.25;;;2.00;;
52866;SDS011;38739;53.324;6.862;2022-10-16T01:39:01;7.20;;;2.17;;
52866;SDS011;38739;53.324;6.862;2022-10-16T01:41:30;7.45;;;2.00;;
52866;SDS011;38739;53.324;6.862;2022-10-16T01:46:50;7.88;;;2.05;;
52866;SDS011;38739;53.324;6.862;2022-10-16T01:49:19;6.20;;;1.80;;
52866;SDS011;38739;53.324;6.862;2022-10-16T01:51:49;7.63;;;2.05;;
52866;SDS011;38739;53.324;6.862;2022-10-16T01:54:17;6.25;;;1.90;;
52866;SDS011;38739;53.324;6.862;2022-10-16T01:56:45;8.43;;;2.13;;
52866;SDS011;38739;53.324;6.862;2022-10-16T01:59:13;6.22;;;2.20;;
52866;SDS011;38739;53.324;6.862;2022-10-16T02:01:42;10.25;;;2.10;;
52866;SDS011;38739;53.324;6.862;2022-10-16T02:04:17;8.18;;;2.00;;
52866;SDS011;38739;53.324;6.862;2022-10-16T02:06:46;5.78;;;1.80;;
52866;SDS011;38739;53.324;6.862;2022-10-16T02:09:11;6.78;;;1.92;;
52866;SDS011;38739;53.324;6.862;2022-10-16T02:11:37;6.13;;;2.00;;
52866;SDS011;38739;53.324;6.862;2022-10-16T02:14:06;9.63;;;1.90;;
52866;SDS011;38739;53.324;6.862;2022-10-16T02:16:39;8.30;;;2.30;;
52866;SDS011;38739;53.324;6.862;2022-10-16T02:19:09;3.40;;;1.80;;
52866;SDS011;38739;53.324;6.862;2022-10-16T02:21:43;8.00;;;2.03;;
52866;SDS011;38739;53.324;6.862;2022-10-16T02:25:15;7.45;;;1.70;;
52866;SDS011;38739;53.324;6.862;2022-10-16T02:27:23;6.88;;;1.80;;
52866;SDS011;38739;53.324;6.862;2022-10-16T02:29:59;8.52;;;2.05;;
52866;SDS011;38739;53.324;6.862;2022-10-16T02:32:34;5.20;;;1.75;;
52866;SDS011;38739;53.324;6.862;2022-10-16T02:35:03;6.13;;;1.88;;
52866;SDS011;38739;53.324;6.862;2022-10-16T02:37:34;8.30;;;2.10;;
52866;SDS011;38739;53.324;6.862;2022-10-16T02:40:01;7.57;;;2.10;;
52866;SDS011;38739;53.324;6.862;2022-10-16T02:42:34;7.15;;;2.58;;
52866;SDS011;38739;53.324;6.862;2022-10-16T02:45:01;6.80;;;1.70;;
52866;SDS011;38739;53.324;6.862;2022-10-16T02:47:27;8.50;;;1.90;;
52866;SDS011;38739;53.324;6.862;2022-10-16T02:49:56;7.13;;;1.90;;
52866;SDS011;38739;53.324;6.862;2022-10-16T02:52:22;9.77;;;2.10;;
52866;SDS011;38739;53.324;6.862;2022-10-16T02:54:48;8.00;;;2.13;;
52866;SDS011;38739;53.324;6.862;2022-10-16T02:57:14;6.82;;;1.70;;
52866;SDS011;38739;53.324;6.862;2022-10-16T02:59:39;6.68;;;2.05;;
52866;SDS011;38739;53.324;6.862;2022-10-16T03:02:05;6.45;;;1.92;;
52866;SDS011;38739;53.324;6.862;2022-10-16T03:04:31;9.43;;;2.50;;
52866;SDS011;38739;53.324;6.862;2022-10-16T03:06:57;8.25;;;2.05;;
52866;SDS011;38739;53.324;6.862;2022-10-16T03:09:22;7.25;;;1.77;;
52866;SDS011;38739;53.324;6.862;2022-10-16T03:11:48;5.18;;;1.90;;
52866;SDS011;38739;53.324;6.862;2022-10-16T03:14:14;4.75;;;1.80;;
52866;SDS011;38739;53.324;6.862;2022-10-16T03:16:39;5.68;;;1.70;;
52866;SDS011;38739;53.324;6.862;2022-10-16T03:19:05;8.00;;;2.03;;
52866;SDS011;38739;53.324;6.862;2022-10-16T03:21:30;4.60;;;1.52;;
52866;SDS011;38739;53.324;6.862;2022-10-16T03:23:56;6.43;;;1.70;;
52866;SDS011;38739;53.324;6.862;2022-10-16T03:26:22;8.63;;;1.75;;
52866;SDS011;38739;53.324;6.862;2022-10-16T03:28:48;5.53;;;2.00;;
52866;SDS011;38739;53.324;6.862;2022-10-16T03:31:13;4.07;;;1.60;;
52866;SDS011;38739;53.324;6.862;2022-10-16T03:33:39;5.43;;;1.77;;
52866;SDS011;38739;53.324;6.862;2022-10-16T03:36:05;5.70;;;1.80;;
52866;SDS011;38739;53.324;6.862;2022-10-16T03:38:31;7.50;;;1.98;;
52866;SDS011;38739;53.324;6.862;2022-10-16T03:40:57;5.43;;;1.70;;
52866;SDS011;38739;53.324;6.862;2022-10-16T03:43:23;7.15;;;1.70;;
52866;SDS011;38739;53.324;6.862;2022-10-16T03:45:52;5.20;;;2.35;;
52866;SDS011;38739;53.324;6.862;2022-10-16T03:48:18;4.82;;;1.92;;
52866;SDS011;38739;53.324;6.862;2022-10-16T03:50:44;3.47;;;1.83;;
52866;SDS011;38739;53.324;6.862;2022-10-16T03:53:11;6.97;;;1.90;;
52866;SDS011;38739;53.324;6.862;2022-10-16T03:55:36;7.68;;;1.92;;
52866;SDS011;38739;53.324;6.862;2022-10-16T03:58:02;7.20;;;2.00;;
52866;SDS011;38739;53.324;6.862;2022-10-16T04:00:28;4.78;;;2.00;;
52866;SDS011;38739;53.324;6.862;2022-10-16T04:02:53;3.85;;;1.73;;
52866;SDS011;38739;53.324;6.862;2022-10-16T04:05:19;4.78;;;1.80;;
52866;SDS011;38739;53.324;6.862;2022-10-16T04:07:45;7.03;;;1.98;;
52866;SDS011;38739;53.324;6.862;2022-10-16T04:10:11;5.95;;;2.20;;
52866;SDS011;38739;53.324;6.862;2022-10-16T04:12:36;6.63;;;2.15;;
52866;SDS011;38739;53.324;6.862;2022-10-16T04:15:02;5.18;;;1.90;;
52866;SDS011;38739;53.324;6.862;2022-10-16T04:17:28;5.78;;;1.92;;
52866;SDS011;38739;53.324;6.862;2022-10-16T04:19:54;11.07;;;2.22;;
52866;SDS011;38739;53.324;6.862;2022-10-16T04:22:20;3.30;;;1.95;;
52866;SDS011;38739;53.324;6.862;2022-10-16T04:24:46;6.80;;;2.17;;
52866;SDS011;38739;53.324;6.862;2022-10-16T04:27:11;5.97;;;1.90;;
52866;SDS011;38739;53.324;6.862;2022-10-16T04:29:37;3.65;;;1.80;;
52866;SDS011;38739;53.324;6.862;2022-10-16T04:32:03;3.92;;;2.00;;
52866;SDS011;38739;53.324;6.862;2022-10-16T04:34:28;3.80;;;1.80;;
52866;SDS011;38739;53.324;6.862;2022-10-16T04:36:54;4.65;;;1.80;;
52866;SDS011;38739;53.324;6.862;2022-10-16T04:39:20;6.80;;;2.05;;
52866;SDS011;38739;53.324;6.862;2022-10-16T04:41:46;2.67;;;1.92;;
52866;SDS011;38739;53.324;6.862;2022-10-16T04:44:11;4.72;;;1.65;;
52866;SDS011;38739;53.324;6.862;2022-10-16T04:46:37;6.13;;;2.25;;
52866;SDS011;38739;53.324;6.862;2022-10-16T04:49:03;4.45;;;2.30;;
52866;SDS011;38739;53.324;6.862;2022-10-16T04:51:28;6.18;;;2.10;;
52866;SDS011;38739;53.324;6.862;2022-10-16T04:53:54;9.70;;;2.13;;
52866;SDS011;38739;53.324;6.862;2022-10-16T04:56:20;6.32;;;2.10;;
52866;SDS011;38739;53.324;6.862;2022-10-16T04:58:46;5.68;;;2.00;;
52866;SDS011;38739;53.324;6.862;2022-10-16T05:01:12;3.97;;;2.10;;
52866;SDS011;38739;53.324;6.862;2022-10-16T05:03:38;4.47;;;2.05;;
52866;SDS011;38739;53.324;6.862;2022-10-16T05:06:07;3.60;;;1.85;;
52866;SDS011;38739;53.324;6.862;2022-10-16T05:08:33;4.68;;;1.90;;
52866;SDS011;38739;53.324;6.862;2022-10-16T05:10:58;5.10;;;2.00;;
52866;SDS011;38739;53.324;6.862;2022-10-16T05:13:25;3.75;;;1.63;;
52866;SDS011;38739;53.324;6.862;2022-10-16T05:15:51;4.80;;;1.92;;
52866;SDS011;38739;53.324;6.862;2022-10-16T05:18:16;5.85;;;1.60;;
52866;SDS011;38739;53.324;6.862;2022-10-16T05:20:42;7.22;;;1.95;;
52866;SDS011;38739;53.324;6.862;2022-10-16T05:23:08;6.05;;;2.25;;
52866;SDS011;38739;53.324;6.862;2022-10-16T05:25:35;4.47;;;1.90;;
52866;SDS011;38739;53.324;6.862;2022-10-16T05:28:01;5.18;;;2.25;;
52866;SDS011;38739;53.324;6.862;2022-10-16T05:30:27;6.65;;;2.10;;
52866;SDS011;38739;53.324;6.862;2022-10-16T05:32:53;8.05;;;1.95;;
52866;SDS011;38739;53.324;6.862;2022-10-16T05:35:19;5.95;;;2.10;;
52866;SDS011;38739;53.324;6.862;2022-10-16T05:37:45;7.57;;;2.00;;
52866;SDS011;38739;53.324;6.862;2022-10-16T05:40:11;4.80;;;1.73;;
52866;SDS011;38739;53.324;6.862;2022-10-16T05:42:38;8.88;;;2.20;;
52866;SDS011;38739;53.324;6.862;2022-10-16T05:45:05;4.80;;;1.60;;
52866;SDS011;38739;53.324;6.862;2022-10-16T05:47:31;6.45;;;1.95;;
52866;SDS011;38739;53.324;6.862;2022-10-16T05:49:57;2.88;;;1.80;;
52866;SDS011;38739;53.324;6.862;2022-10-16T05:52:23;5.07;;;1.98;;
52866;SDS011;38739;53.324;6.862;2022-10-16T05:54:48;7.63;;;2.30;;
52866;SDS011;38739;53.324;6.862;2022-10-16T05:57:14;6.93;;;2.10;;
52866;SDS011;38739;53.324;6.862;2022-10-16T05:59:40;7.68;;;2.50;;
52866;SDS011;38739;53.324;6.862;2022-10-16T06:02:07;5.15;;;2.35;;
52866;SDS011;38739;53.324;6.862;2022-10-16T06:04:40;8.93;;;2.80;;
52866;SDS011;38739;53.324;6.862;2022-10-16T06:07:06;6.20;;;2.65;;
52866;SDS011;38739;53.324;6.862;2022-10-16T06:09:32;3.92;;;2.00;;
52866;SDS011;38739;53.324;6.862;2022-10-16T06:11:57;6.80;;;2.60;;
52866;SDS011;38739;53.324;6.862;2022-10-16T06:14:23;10.68;;;2.78;;
52866;SDS011;38739;53.324;6.862;2022-10-16T06:16:49;4.95;;;2.20;;
52866;SDS011;38739;53.324;6.862;2022-10-16T06:19:14;6.30;;;2.78;;
52866;SDS011;38739;53.324;6.862;2022-10-16T06:21:41;4.28;;;2.30;;
52866;SDS011;38739;53.324;6.862;2022-10-16T06:24:07;5.55;;;2.58;;
52866;SDS011;38739;53.324;6.862;2022-10-16T06:26:33;11.18;;;2.70;;
52866;SDS011;38739;53.324;6.862;2022-10-16T06:28:59;5.28;;;2.40;;
52866;SDS011;38739;53.324;6.862;2022-10-16T06:31:26;6.00;;;2.72;;
52866;SDS011;38739;53.324;6.862;2022-10-16T06:33:55;5.35;;;2.38;;
52866;SDS011;38739;53.324;6.862;2022-10-16T06:36:21;5.68;;;2.65;;
52866;SDS011;38739;53.324;6.862;2022-10-16T06:38:47;7.75;;;2.80;;
52866;SDS011;38739;53.324;6.862;2022-10-16T06:41:15;8.13;;;2.60;;
52866;SDS011;38739;53.324;6.862;2022-10-16T06:43:43;6.03;;;2.90;;
52866;SDS011;38739;53.324;6.862;2022-10-16T06:46:11;5.15;;;2.60;;
52866;SDS011;38739;53.324;6.862;2022-10-16T06:48:38;6.78;;;2.88;;
52866;SDS011;38739;53.324;6.862;2022-10-16T06:51:14;6.10;;;2.80;;
52866;SDS011;38739;53.324;6.862;2022-10-16T06:53:44;5.30;;;2.60;;
52866;SDS011;38739;53.324;6.862;2022-10-16T06:56:21;7.38;;;2.67;;
52866;SDS011;38739;53.324;6.862;2022-10-16T06:58:48;6.80;;;2.60;;
52866;SDS011;38739;53.324;6.862;2022-10-16T07:01:16;6.43;;;2.88;;
52866;SDS011;38739;53.324;6.862;2022-10-16T07:03:43;5.65;;;2.63;;
52866;SDS011;38739;53.324;6.862;2022-10-16T07:06:11;6.72;;;2.80;;
52866;SDS011;38739;53.324;6.862;2022-10-16T07:08:39;9.27;;;3.22;;
52866;SDS011;38739;53.324;6.862;2022-10-16T07:11:07;10.02;;;3.30;;
52866;SDS011;38739;53.324;6.862;2022-10-16T07:13:35;5.85;;;2.80;;
52866;SDS011;38739;53.324;6.862;2022-10-16T07:16:08;9.52;;;2.65;;
52866;SDS011;38739;53.324;6.862;2022-10-16T07:18:39;6.65;;;2.60;;
52866;SDS011;38739;53.324;6.862;2022-10-16T07:21:07;8.60;;;2.60;;
52866;SDS011;38739;53.324;6.862;2022-10-16T07:23:36;6.85;;;2.45;;
52866;SDS011;38739;53.324;6.862;2022-10-16T07:26:02;8.20;;;2.20;;
52866;SDS011;38739;53.324;6.862;2022-10-16T07:28:29;8.27;;;2.40;;
52866;SDS011;38739;53.324;6.862;2022-10-16T07:30:59;7.90;;;2.50;;
52866;SDS011;38739;53.324;6.862;2022-10-16T07:33:26;4.68;;;2.22;;
52866;SDS011;38739;53.324;6.862;2022-10-16T07:35:52;5.82;;;2.35;;
52866;SDS011;38739;53.324;6.862;2022-10-16T07:38:19;7.82;;;2.10;;
52866;SDS011;38739;53.324;6.862;2022-10-16T07:40:45;5.38;;;2.58;;
52866;SDS011;38739;53.324;6.862;2022-10-16T07:43:11;9.73;;;2.60;;
52866;SDS011;38739;53.324;6.862;2022-10-16T07:45:38;7.95;;;2.78;;
52866;SDS011;38739;53.324;6.862;2022-10-16T07:48:15;6.30;;;2.15;;
52866;SDS011;38739;53.324;6.862;2022-10-16T07:50:42;7.13;;;2.30;;
52866;SDS011;38739;53.324;6.862;2022-10-16T07:53:08;4.20;;;1.95;;
52866;SDS011;38739;53.324;6.862;2022-10-16T07:55:34;5.57;;;2.60;;
52866;SDS011;38739;53.324;6.862;2022-10-16T07:57:59;8.20;;;2.55;;
52866;SDS011;38739;53.324;6.862;2022-10-16T08:00:25;5.70;;;2.13;;
52866;SDS011;38739;53.324;6.862;2022-10-16T08:02:51;5.55;;;2.35;;
52866;SDS011;38739;53.324;6.862;2022-10-16T08:05:17;6.32;;;2.20;;
52866;SDS011;38739;53.324;6.862;2022-10-16T08:07:42;6.80;;;2.15;;
52866;SDS011;38739;53.324;6.862;2022-10-16T08:10:19;4.93;;;2.13;;
52866;SDS011;38739;53.324;6.862;2022-10-16T08:12:46;8.10;;;2.15;;
52866;SDS011;38739;53.324;6.862;2022-10-16T08:15:12;5.97;;;2.40;;
52866;SDS011;38739;53.324;6.862;2022-10-16T08:17:38;5.75;;;2.00;;
52866;SDS011;38739;53.324;6.862;2022-10-16T08:20:04;13.48;;;2.78;;
52866;SDS011;38739;53.324;6.862;2022-10-16T08:22:30;5.07;;;2.10;;
52866;SDS011;38739;53.324;6.862;2022-10-16T08:24:56;5.65;;;2.05;;
52866;SDS011;38739;53.324;6.862;2022-10-16T08:27:22;8.98;;;2.60;;
52866;SDS011;38739;53.324;6.862;2022-10-16T08:29:50;4.50;;;2.10;;
52866;SDS011;38739;53.324;6.862;2022-10-16T08:32:16;9.63;;;2.45;;
52866;SDS011;38739;53.324;6.862;2022-10-16T08:34:42;5.53;;;2.13;;
52866;SDS011;38739;53.324;6.862;2022-10-16T08:37:07;9.82;;;2.90;;
52866;SDS011;38739;53.324;6.862;2022-10-16T08:39:36;8.20;;;2.45;;
52866;SDS011;38739;53.324;6.862;2022-10-16T08:47:49;7.90;;;2.28;;
52866;SDS011;38739;53.324;6.862;2022-10-16T08:50:26;6.03;;;1.95;;
52866;SDS011;38739;53.324;6.862;2022-10-16T08:52:54;6.05;;;2.00;;
52866;SDS011;38739;53.324;6.862;2022-10-16T08:58:20;4.68;;;1.63;;
52866;SDS011;38739;53.324;6.862;2022-10-16T09:00:55;8.48;;;1.75;;
52866;SDS011;38739;53.324;6.862;2022-10-16T09:17:12;6.15;;;1.55;;
52866;SDS011;38739;53.324;6.862;2022-10-16T09:22:47;11.73;;;2.33;;
52866;SDS011;38739;53.324;6.862;2022-10-16T09:25:17;5.95;;;1.80;;
52866;SDS011;38739;53.324;6.862;2022-10-16T09:27:46;10.55;;;1.95;;
52866;SDS011;38739;53.324;6.862;2022-10-16T09:30:21;7.88;;;1.73;;
52866;SDS011;38739;53.324;6.862;2022-10-16T09:32:49;7.28;;;1.67;;
52866;SDS011;38739;53.324;6.862;2022-10-16T09:35:19;8.43;;;1.55;;
52866;SDS011;38739;53.324;6.862;2022-10-16T09:37:49;6.38;;;1.50;;
52866;SDS011;38739;53.324;6.862;2022-10-16T09:40:28;7.00;;;1.60;;
52866;SDS011;38739;53.324;6.862;2022-10-16T09:43:01;8.02;;;1.70;;
52866;SDS011;38739;53.324;6.862;2022-10-16T09:45:53;7.75;;;1.52;;
52866;SDS011;38739;53.324;6.862;2022-10-16T09:48:47;7.55;;;2.63;;
52866;SDS011;38739;53.324;6.862;2022-10-16T09:53:55;6.63;;;2.78;;
52866;SDS011;38739;53.324;6.862;2022-10-16T09:56:31;10.05;;;3.30;;
52866;SDS011;38739;53.324;6.862;2022-10-16T09:59:02;14.70;;;7.57;;
52866;SDS011;38739;53.324;6.862;2022-10-16T10:01:36;12.13;;;3.00;;
52866;SDS011;38739;53.324;6.862;2022-10-16T10:04:08;9.05;;;1.65;;
52866;SDS011;38739;53.324;6.862;2022-10-16T10:11:40;29.23;;;19.88;;
52866;SDS011;38739;53.324;6.862;2022-10-16T10:14:14;14.10;;;4.18;;
52866;SDS011;38739;53.324;6.862;2022-10-16T10:17:07;11.52;;;1.95;;
52866;SDS011;38739;53.324;6.862;2022-10-16T10:22:26;11.43;;;2.20;;
52866;SDS011;38739;53.324;6.862;2022-10-16T10:46:57;7.15;;;2.28;;
52866;SDS011;38739;53.324;6.862;2022-10-16T10:57:30;12.70;;;3.10;;
52866;SDS011;38739;53.324;6.862;2022-10-16T11:00:01;10.95;;;2.63;;
52866;SDS011;38739;53.324;6.862;2022-10-16T11:02:38;13.07;;;2.40;;
52866;SDS011;38739;53.324;6.862;2022-10-16T11:07:58;10.82;;;2.10;;
52866;SDS011;38739;53.324;6.862;2022-10-16T11:10:28;10.80;;;1.95;;
52866;SDS011;38739;53.324;6.862;2022-10-16T11:13:10;8.45;;;2.00;;
52866;SDS011;38739;53.324;6.862;2022-10-16T11:15:47;11.32;;;2.15;;
52866;SDS011;38739;53.324;6.862;2022-10-16T11:18:16;8.77;;;1.75;;
52866;SDS011;38739;53.324;6.862;2022-10-16T11:23:26;10.75;;;2.00;;
52866;SDS011;38739;53.324;6.862;2022-10-16T11:25:59;8.93;;;1.80;;
52866;SDS011;38739;53.324;6.862;2022-10-16T11:33:55;11.52;;;1.75;;
52866;SDS011;38739;53.324;6.862;2022-10-16T11:36:23;10.88;;;2.10;;
52866;SDS011;38739;53.324;6.862;2022-10-16T11:38:58;8.02;;;1.70;;
52866;SDS011;38739;53.324;6.862;2022-10-16T11:41:33;10.27;;;1.63;;
52866;SDS011;38739;53.324;6.862;2022-10-16T11:44:09;9.00;;;2.15;;
52866;SDS011;38739;53.324;6.862;2022-10-16T11:46:40;11.38;;;2.17;;
52866;SDS011;38739;53.324;6.862;2022-10-16T11:49:20;9.15;;;1.88;;
52866;SDS011;38739;53.324;6.862;2022-10-16T11:51:53;7.70;;;1.73;;
52866;SDS011;38739;53.324;6.862;2022-10-16T11:56:53;9.05;;;1.85;;
52866;SDS011;38739;53.324;6.862;2022-10-16T12:00:19;11.25;;;2.03;;
52866;SDS011;38739;53.324;6.862;2022-10-16T12:07:52;9.63;;;1.45;;
52866;SDS011;38739;53.324;6.862;2022-10-16T12:10:25;9.48;;;1.50;;
52866;SDS011;38739;53.324;6.862;2022-10-16T12:12:52;10.77;;;2.10;;
52866;SDS011;38739;53.324;6.862;2022-10-16T12:15:23;11.00;;;2.00;;
52866;SDS011;38739;53.324;6.862;2022-10-16T12:17:53;11.00;;;1.98;;
52866;SDS011;38739;53.324;6.862;2022-10-16T12:20:22;7.72;;;1.50;;
52866;SDS011;38739;53.324;6.862;2022-10-16T12:23:06;11.57;;;2.00;;
52866;SDS011;38739;53.324;6.862;2022-10-16T12:25:44;9.88;;;2.00;;
52866;SDS011;38739;53.324;6.862;2022-10-16T12:28:26;10.45;;;2.22;;
52866;SDS011;38739;53.324;6.862;2022-10-16T12:31:03;13.45;;;2.35;;
52866;SDS011;38739;53.324;6.862;2022-10-16T12:33:42;12.32;;;2.00;;
52866;SDS011;38739;53.324;6.862;2022-10-16T12:36:31;9.38;;;1.80;;
52866;SDS011;38739;53.324;6.862;2022-10-16T12:38:58;8.57;;;1.73;;
52866;SDS011;38739;53.324;6.862;2022-10-16T12:41:27;11.85;;;1.90;;
52866;SDS011;38739;53.324;6.862;2022-10-16T12:43:57;9.40;;;2.00;;
52866;SDS011;38739;53.324;6.862;2022-10-16T12:51:53;9.68;;;1.90;;
52866;SDS011;38739;53.324;6.862;2022-10-16T12:54:21;9.88;;;1.90;;
52866;SDS011;38739;53.324;6.862;2022-10-16T12:57:08;9.38;;;1.77;;
52866;SDS011;38739;53.324;6.862;2022-10-16T13:00:04;9.50;;;1.75;;
52866;SDS011;38739;53.324;6.862;2022-10-16T13:10:42;9.35;;;1.70;;
52866;SDS011;38739;53.324;6.862;2022-10-16T13:16:19;8.57;;;1.40;;
52866;SDS011;38739;53.324;6.862;2022-10-16T13:30:17;13.48;;;1.83;;
52866;SDS011;38739;53.324;6.862;2022-10-16T13:32:50;15.30;;;2.17;;
52866;SDS011;38739;53.324;6.862;2022-10-16T13:35:23;12.30;;;2.00;;
52866;SDS011;38739;53.324;6.862;2022-10-16T13:38:13;11.68;;;2.15;;
52866;SDS011;38739;53.324;6.862;2022-10-16T13:41:00;8.43;;;1.88;;
52866;SDS011;38739;53.324;6.862;2022-10-16T13:43:32;10.32;;;1.83;;
52866;SDS011;38739;53.324;6.862;2022-10-16T13:48:58;12.60;;;1.98;;
52866;SDS011;38739;53.324;6.862;2022-10-16T13:51:25;12.30;;;2.35;;
52866;SDS011;38739;53.324;6.862;2022-10-16T13:53:51;7.88;;;2.00;;
52866;SDS011;38739;53.324;6.862;2022-10-16T13:56:18;8.82;;;1.80;;
52866;SDS011;38739;53.324;6.862;2022-10-16T13:58:46;11.23;;;1.70;;
52866;SDS011;38739;53.324;6.862;2022-10-16T14:01:23;10.60;;;2.33;;
52866;SDS011;38739;53.324;6.862;2022-10-16T14:03:52;9.30;;;1.83;;
52866;SDS011;38739;53.324;6.862;2022-10-16T14:06:19;12.90;;;2.13;;
52866;SDS011;38739;53.324;6.862;2022-10-16T14:09:06;16.25;;;1.90;;
52866;SDS011;38739;53.324;6.862;2022-10-16T14:11:43;7.75;;;1.70;;
52866;SDS011;38739;53.324;6.862;2022-10-16T14:14:13;14.50;;;2.65;;
52866;SDS011;38739;53.324;6.862;2022-10-16T14:16:40;9.48;;;1.80;;
52866;SDS011;38739;53.324;6.862;2022-10-16T14:21:49;14.13;;;2.30;;
52866;SDS011;38739;53.324;6.862;2022-10-16T14:24:49;12.57;;;2.20;;
52866;SDS011;38739;53.324;6.862;2022-10-16T14:27:23;10.75;;;2.00;;
52866;SDS011;38739;53.324;6.862;2022-10-16T14:32:33;12.55;;;1.90;;
52866;SDS011;38739;53.324;6.862;2022-10-16T14:34:59;9.63;;;1.70;;
52866;SDS011;38739;53.324;6.862;2022-10-16T14:37:28;11.85;;;2.40;;
52866;SDS011;38739;53.324;6.862;2022-10-16T14:39:55;12.20;;;1.98;;
52866;SDS011;38739;53.324;6.862;2022-10-16T14:42:23;14.68;;;2.40;;
52866;SDS011;38739;53.324;6.862;2022-10-16T14:44:51;16.30;;;2.22;;
52866;SDS011;38739;53.324;6.862;2022-10-16T14:47:19;14.10;;;2.95;;
52866;SDS011;38739;53.324;6.862;2022-10-16T14:49:50;12.45;;;2.08;;
52866;SDS011;38739;53.324;6.862;2022-10-16T14:52:16;17.35;;;2.78;;
52866;SDS011;38739;53.324;6.862;2022-10-16T14:54:48;14.55;;;2.60;;
52866;SDS011;38739;53.324;6.862;2022-10-16T14:57:21;16.73;;;2.83;;
52866;SDS011;38739;53.324;6.862;2022-10-16T14:59:49;13.35;;;2.50;;
52866;SDS011;38739;53.324;6.862;2022-10-16T15:04:54;14.73;;;1.90;;
52866;SDS011;38739;53.324;6.862;2022-10-16T15:07:20;13.90;;;2.50;;
52866;SDS011;38739;53.324;6.862;2022-10-16T15:09:46;14.85;;;2.75;;
52866;SDS011;38739;53.324;6.862;2022-10-16T15:12:12;12.18;;;2.28;;
52866;SDS011;38739;53.324;6.862;2022-10-16T15:14:38;14.05;;;2.30;;
52866;SDS011;38739;53.324;6.862;2022-10-16T15:17:04;11.43;;;2.47;;
52866;SDS011;38739;53.324;6.862;2022-10-16T15:19:29;12.32;;;2.20;;
52866;SDS011;38739;53.324;6.862;2022-10-16T15:21:55;12.98;;;1.80;;
52866;SDS011;38739;53.324;6.862;2022-10-16T15:24:21;11.93;;;2.10;;
52866;SDS011;38739;53.324;6.862;2022-10-16T15:26:47;11.55;;;2.00;;
52866;SDS011;38739;53.324;6.862;2022-10-16T15:29:14;12.73;;;2.40;;
52866;SDS011;38739;53.324;6.862;2022-10-16T15:31:40;17.65;;;2.63;;
52866;SDS011;38739;53.324;6.862;2022-10-16T15:34:12;13.88;;;2.50;;
52866;SDS011;38739;53.324;6.862;2022-10-16T15:36:39;11.13;;;2.72;;
52866;SDS011;38739;53.324;6.862;2022-10-16T15:39:15;12.85;;;3.33;;
52866;SDS011;38739;53.324;6.862;2022-10-16T15:41:42;10.68;;;2.58;;
52866;SDS011;38739;53.324;6.862;2022-10-16T15:44:09;14.02;;;3.50;;
52866;SDS011;38739;53.324;6.862;2022-10-16T15:46:35;19.35;;;3.75;;
52866;SDS011;38739;53.324;6.862;2022-10-16T15:49:02;15.90;;;4.43;;
52866;SDS011;38739;53.324;6.862;2022-10-16T15:51:28;17.33;;;4.70;;
52866;SDS011;38739;53.324;6.862;2022-10-16T15:53:57;16.52;;;4.65;;
52866;SDS011;38739;53.324;6.862;2022-10-16T15:56:24;16.80;;;4.30;;
52866;SDS011;38739;53.324;6.862;2022-10-16T15:58:51;16.00;;;4.45;;
52866;SDS011;38739;53.324;6.862;2022-10-16T16:01:18;20.13;;;4.65;;
52866;SDS011;38739;53.324;6.862;2022-10-16T16:03:47;21.88;;;4.80;;
52866;SDS011;38739;53.324;6.862;2022-10-16T16:06:13;15.23;;;3.55;;
52866;SDS011;38739;53.324;6.862;2022-10-16T16:08:40;16.08;;;3.60;;
52866;SDS011;38739;53.324;6.862;2022-10-16T16:11:12;11.85;;;3.65;;
52866;SDS011;38739;53.324;6.862;2022-10-16T16:13:39;15.45;;;3.97;;
52866;SDS011;38739;53.324;6.862;2022-10-16T16:16:07;17.30;;;4.30;;
52866;SDS011;38739;53.324;6.862;2022-10-16T16:18:34;18.42;;;4.25;;
52866;SDS011;38739;53.324;6.862;2022-10-16T16:21:01;13.40;;;3.95;;
52866;SDS011;38739;53.324;6.862;2022-10-16T16:23:27;18.58;;;4.35;;
52866;SDS011;38739;53.324;6.862;2022-10-16T16:26:12;18.05;;;4.05;;
52866;SDS011;38739;53.324;6.862;2022-10-16T16:28:40;21.25;;;5.03;;
52866;SDS011;38739;53.324;6.862;2022-10-16T16:31:20;17.95;;;4.75;;
52866;SDS011;38739;53.324;6.862;2022-10-16T16:33:53;13.98;;;4.25;;
52866;SDS011;38739;53.324;6.862;2022-10-16T16:36:23;16.83;;;4.05;;
52866;SDS011;38739;53.324;6.862;2022-10-16T16:38:56;16.30;;;4.57;;
52866;SDS011;38739;53.324;6.862;2022-10-16T16:41:23;15.68;;;4.60;;
52866;SDS011;38739;53.324;6.862;2022-10-16T16:44:03;20.75;;;5.38;;
52866;SDS011;38739;53.324;6.862;2022-10-16T16:46:35;18.08;;;5.18;;
52866;SDS011;38739;53.324;6.862;2022-10-16T16:49:01;12.38;;;4.10;;
52866;SDS011;38739;53.324;6.862;2022-10-16T16:51:28;18.42;;;4.32;;
52866;SDS011;38739;53.324;6.862;2022-10-16T16:53:55;20.33;;;4.13;;
52866;SDS011;38739;53.324;6.862;2022-10-16T16:56:21;15.32;;;3.83;;
52866;SDS011;38739;53.324;6.862;2022-10-16T16:58:49;17.80;;;4.28;;
52866;SDS011;38739;53.324;6.862;2022-10-16T17:01:16;14.80;;;4.10;;
52866;SDS011;38739;53.324;6.862;2022-10-16T17:03:43;17.30;;;4.10;;
52866;SDS011;38739;53.324;6.862;2022-10-16T17:06:09;18.13;;;4.63;;
52866;SDS011;38739;53.324;6.862;2022-10-16T17:08:36;17.88;;;5.13;;
52866;SDS011;38739;53.324;6.862;2022-10-16T17:11:03;17.02;;;4.70;;
52866;SDS011;38739;53.324;6.862;2022-10-16T17:13:31;15.43;;;4.97;;
52866;SDS011;38739;53.324;6.862;2022-10-16T17:16:02;20.17;;;5.65;;